Time;durP1;ratioP1;P1;durP2;ratioP2;P2;SDS_P1;SDS_P2;PMS_P1;PMS_P2;Temp;Humidity;BMP_temperature;BMP_pressure;BME280_temperature;BME280_humidity;BME280_pressure;Samples;Min_cycle;Max_cycle;Signal;HPM_P1;HPM_P2
2024/01/01 00:01:24;;;;;;;336.90;192.65;;;;;;;-144.73;100.00;54723.81;5030204;28;20037;-74
2024/01/01 00:03:50;;;;;;;372.52;209.75;;;;;;;-144.73;100.00;54695.06;5026907;28;20037;-74
2024/01/01 00:06:15;;;;;;;325.95;171.70;;;;;;;-144.73;100.00;54725.84;5030150;28;20071;-74
2024/01/01 00:08:41;;;;;;;288.42;161.30;;;;;;;-144.73;100.00;54707.38;5024673;28;20048;-74
2024/01/01 00:11:07;;;;;;;269.77;141.07;;;;;;;-144.73;100.00;54703.28;5029691;28;20023;-74
2024/01/01 00:13:32;;;;;;;265.70;136.05;;;;;;;-144.73;100.00;54723.81;5030445;28;20117;-73
2024/01/01 00:15:57;;;;;;;227.77;113.78;;;;;;;-144.73;100.00;54695.06;5046365;28;20104;-74
2024/01/01 00:18:23;;;;;;;240.30;127.00;;;;;;;-144.73;100.00;54707.38;5027496;28;20068;-75
2024/01/01 00:20:48;;;;;;;215.82;115.22;;;;;;;-144.73;100.00;54680.69;5029638;28;20025;-74
2024/01/01 00:23:14;;;;;;;194.70;97.13;;;;;;;-144.73;100.00;54676.59;5028916;28;20037;-74
2024/01/01 00:25:39;;;;;;;207.50;105.68;;;;;;;-144.73;100.00;54719.69;5029040;28;20481;-74
2024/01/01 00:28:06;;;;;;;189.13;99.35;;;;;;;-144.73;100.00;54703.28;5029027;28;20091;-76
2024/01/01 00:30:32;;;;;;;172.75;88.53;;;;;;;-144.73;100.00;54703.28;5029841;28;20021;-74
2024/01/01 00:32:57;;;;;;;180.20;87.18;;;;;;;-144.73;100.00;54723.81;5014927;28;20076;-74
2024/01/01 00:35:23;;;;;;;189.80;92.80;;;;;;;-144.73;100.00;54719.69;5011550;28;20033;-74
2024/01/01 00:37:48;;;;;;;181.85;87.20;;;;;;;-144.73;100.00;54713.53;5023350;28;20439;-74
2024/01/01 00:40:14;;;;;;;183.60;88.72;;;;;;;-144.73;100.00;54695.06;5007174;28;20018;-74
2024/01/01 00:42:42;;;;;;;163.40;81.53;;;;;;;-144.73;100.00;54701.22;5020365;28;20199;-74
2024/01/01 00:45:08;;;;;;;145.57;76.38;;;;;;;-144.73;100.00;54736.13;5029669;28;20025;-76
2024/01/01 00:47:34;;;;;;;155.27;83.70;;;;;;;-144.73;100.00;54678.63;5029619;28;20009;-74
2024/01/01 00:50:00;;;;;;;160.38;81.03;;;;;;;-144.73;100.00;54711.47;5033440;28;20010;-74
2024/01/01 00:52:25;;;;;;;143.32;72.95;;;;;;;-144.73;100.00;54707.38;5031644;28;20087;-74
2024/01/01 00:54:51;;;;;;;140.82;69.75;;;;;;;-144.73;100.00;54678.63;5044884;28;20034;-74
2024/01/01 00:57:19;;;;;;;134.13;65.97;;;;;;;-144.73;100.00;54709.44;5034557;28;20064;-74
2024/01/01 00:59:45;;;;;;;118.13;58.95;;;;;;;-144.73;100.00;54695.06;5032613;28;20098;-74
2024/01/01 01:02:10;;;;;;;157.30;72.65;;;;;;;-144.73;100.00;54703.28;5032666;28;20021;-74
2024/01/01 01:04:36;;;;;;;277.80;141.95;;;;;;;-144.73;100.00;54711.47;5032715;28;20083;-74
2024/01/01 01:07:02;;;;;;;116.63;57.15;;;;;;;-144.73;100.00;54678.63;5032647;28;20025;-74
2024/01/01 01:09:28;;;;;;;98.88;50.15;;;;;;;-144.73;100.00;54654.00;5048998;28;20033;-74
2024/01/01 01:11:53;;;;;;;89.45;44.58;;;;;;;-144.73;100.00;54686.84;5032730;28;20075;-74
2024/01/01 01:14:19;;;;;;;93.25;43.03;;;;;;;-144.73;100.00;54715.59;5032369;28;20037;-75
2024/01/01 01:16:45;;;;;;;82.03;41.60;;;;;;;-144.73;100.00;54695.06;5032830;28;20021;-75
2024/01/01 01:19:11;;;;;;;92.85;41.28;;;;;;;-144.73;100.00;54674.53;5030991;28;20063;-75
2024/01/01 01:21:36;;;;;;;74.13;36.05;;;;;;;-144.73;100.00;54686.84;5046230;28;20049;-74
2024/01/01 01:24:02;;;;;;;87.15;35.00;;;;;;;-144.73;100.00;54719.69;5029100;28;20030;-74
2024/01/01 01:26:27;;;;;;;64.78;30.67;;;;;;;-144.73;100.00;54703.28;5014590;28;20039;-75
2024/01/01 01:28:53;;;;;;;61.60;28.08;;;;;;;-144.73;100.00;54699.16;5012743;28;20112;-75
2024/01/01 01:31:18;;;;;;;63.75;25.45;;;;;;;-144.73;100.00;54662.22;5021072;28;20021;-74
2024/01/01 01:33:43;;;;;;;52.58;21.83;;;;;;;-144.73;100.00;54705.31;5014389;28;20034;-74
2024/01/01 01:36:09;;;;;;;46.30;19.88;;;;;;;-144.73;100.00;54674.53;5013359;28;20028;-75
2024/01/01 01:38:38;;;;;;;66.68;30.25;;;;;;;-144.73;100.00;54719.69;5012471;28;20062;-74
2024/01/01 01:41:03;;;;;;;172.43;88.25;;;;;;;-144.73;100.00;54703.28;5016148;28;20076;-74
2024/01/01 01:43:29;;;;;;;54.92;23.50;;;;;;;-144.73;100.00;54697.13;5030916;28;20033;-74
2024/01/01 01:45:58;;;;;;;55.72;21.88;;;;;;;-144.73;100.00;54736.13;5032047;28;20022;-74
2024/01/01 01:48:24;;;;;;;42.00;17.20;;;;;;;-144.73;100.00;54732.00;5031758;28;20516;-74
2024/01/01 01:50:50;;;;;;;40.47;16.98;;;;;;;-144.73;100.00;54711.47;5031911;28;20025;-74
2024/01/01 01:53:23;;;;;;;50.10;15.13;;;;;;;-144.73;100.00;54707.38;5016173;28;20033;-74
2024/01/01 01:55:54;;;;;;;38.38;15.77;;;;;;;-144.73;100.00;54736.13;5025299;28;20028;-75
2024/01/01 01:58:21;;;;;;;40.00;14.50;;;;;;;-144.73;100.00;54750.50;5017896;28;20034;-74
2024/01/01 02:00:48;;;;;;;37.42;15.13;;;;;;;-144.73;100.00;54682.75;5028391;28;20021;-74
2024/01/01 02:03:14;;;;;;;38.05;14.77;;;;;;;-144.73;100.00;54707.38;5027259;28;20116;-75
2024/01/01 02:05:39;;;;;;;38.88;14.75;;;;;;;-144.73;100.00;54732.00;5031449;28;20076;-74
2024/01/01 02:08:06;;;;;;;34.78;13.85;;;;;;;-144.73;100.00;54707.38;5032482;28;20456;-74
2024/01/01 02:10:32;;;;;;;39.95;15.18;;;;;;;-144.73;100.00;54707.38;5031517;28;20100;-74
2024/01/01 02:12:59;;;;;;;35.38;14.48;;;;;;;-144.73;100.00;54715.59;5029353;28;20108;-74
2024/01/01 02:15:25;;;;;;;32.78;14.20;;;;;;;-144.73;100.00;54674.53;5031586;28;20017;-74
2024/01/01 02:17:51;;;;;;;38.38;14.23;;;;;;;-144.73;100.00;54695.06;5030888;28;20030;-74
2024/01/01 02:20:16;;;;;;;33.78;13.85;;;;;;;-144.73;100.00;54686.84;5047799;28;20021;-75
2024/01/01 02:22:42;;;;;;;28.15;12.98;;;;;;;-144.73;100.00;54715.59;5030773;28;20056;-74
2024/01/01 02:25:09;;;;;;;33.97;13.95;;;;;;;-144.73;100.00;54719.69;5031202;28;20017;-74
2024/01/01 02:27:37;;;;;;;37.85;11.90;;;;;;;-144.73;100.00;54707.38;5031145;28;20037;-75
2024/01/01 02:30:04;;;;;;;30.45;11.68;;;;;;;-144.73;100.00;54711.47;5031140;28;20023;-75
2024/01/01 02:32:30;;;;;;;32.92;12.80;;;;;;;-144.73;100.00;54645.78;5030595;28;20014;-75
2024/01/01 02:34:55;;;;;;;31.90;12.02;;;;;;;-144.73;100.00;54709.44;5030831;28;20028;-74
2024/01/01 02:37:20;;;;;;;37.30;12.45;;;;;;;-144.73;100.00;54678.63;5030239;28;20076;-75
2024/01/01 02:39:46;;;;;;;30.40;11.43;;;;;;;-144.73;100.00;54670.44;5030576;28;20113;-75
2024/01/01 02:42:11;;;;;;;32.17;11.02;;;;;;;-144.73;100.00;54715.59;5024582;28;20072;-75
2024/01/01 02:44:36;;;;;;;29.33;11.00;;;;;;;-144.73;100.00;54727.91;5028062;28;20037;-74
2024/01/01 02:47:02;;;;;;;34.03;13.00;;;;;;;-144.73;100.00;54682.75;5011840;28;20026;-74
2024/01/01 02:49:27;;;;;;;32.80;12.88;;;;;;;-144.73;100.00;54674.53;5010783;28;20030;-75
2024/01/01 02:51:53;;;;;;;24.83;10.85;;;;;;;-144.73;100.00;54707.38;5011548;28;20485;-74
2024/01/01 02:54:19;;;;;;;37.85;11.73;;;;;;;-144.73;100.00;54711.47;5010772;28;20061;-76
2024/01/01 02:56:44;;;;;;;26.83;10.55;;;;;;;-144.73;100.00;54690.97;5016194;28;20029;-75
2024/01/01 02:59:10;;;;;;;26.92;11.27;;;;;;;-144.73;100.00;54690.97;5013157;28;20034;-74
2024/01/01 03:01:35;;;;;;;32.53;10.95;;;;;;;-144.73;100.00;54715.59;5012654;28;20515;-74
2024/01/01 03:04:01;;;;;;;24.98;11.60;;;;;;;-144.73;100.00;54723.81;5011011;28;20058;-75
2024/01/01 03:06:26;;;;;;;32.83;12.02;;;;;;;-144.73;100.00;54697.13;5011442;28;20056;-75
2024/01/01 03:08:51;;;;;;;28.48;12.90;;;;;;;-144.73;100.00;54695.06;5025037;28;20097;-74
2024/01/01 03:11:17;;;;;;;34.53;13.18;;;;;;;-144.73;100.00;54699.16;5019828;28;20021;-74
2024/01/01 03:13:42;;;;;;;32.55;13.15;;;;;;;-144.73;100.00;54670.44;5019219;28;20038;-75
2024/01/01 03:16:08;;;;;;;33.85;13.18;;;;;;;-144.73;100.00;54727.91;5010943;28;20026;-74
2024/01/01 03:18:34;;;;;;;38.25;13.85;;;;;;;-144.73;100.00;54703.28;5011576;28;20037;-75
2024/01/01 03:20:59;;;;;;;30.63;13.57;;;;;;;-144.73;100.00;54715.59;5011320;28;20492;-76
2024/01/01 03:23:24;;;;;;;33.58;14.70;;;;;;;-144.73;100.00;54707.38;5028414;28;20052;-75
2024/01/01 03:25:50;;;;;;;27.95;13.30;;;;;;;-144.73;100.00;54670.44;5029301;28;20025;-75
2024/01/01 03:28:16;;;;;;;36.22;15.57;;;;;;;-144.73;100.00;54748.44;5029851;28;20037;-75
2024/01/01 03:30:42;;;;;;;33.47;15.93;;;;;;;-144.73;100.00;54703.28;5030463;28;20029;-75
2024/01/01 03:33:07;;;;;;;37.05;15.18;;;;;;;-144.73;100.00;54719.69;5022114;28;20041;-75
2024/01/01 03:35:32;;;;;;;33.88;15.32;;;;;;;-144.73;100.00;54699.16;5011105;28;20049;-75
2024/01/01 03:37:58;;;;;;;38.53;16.77;;;;;;;-144.73;100.00;54682.75;5004900;28;20048;-75
2024/01/01 03:40:24;;;;;;;40.10;15.95;;;;;;;-144.73;100.00;54695.06;5010692;28;20448;-75
2024/01/01 03:42:53;;;;;;;35.63;16.55;;;;;;;-144.73;100.00;54699.16;5025446;28;20029;-75
2024/01/01 03:45:19;;;;;;;33.95;14.95;;;;;;;-144.73;100.00;54719.69;5031239;28;20017;-75
2024/01/01 03:47:44;;;;;;;41.20;15.43;;;;;;;-144.73;100.00;54709.44;5029268;28;20117;-75
2024/01/01 03:50:16;;;;;;;40.85;16.75;;;;;;;-144.73;100.00;54732.00;5030007;28;20033;-74
2024/01/01 03:52:41;;;;;;;34.75;15.23;;;;;;;-144.73;100.00;54703.28;5042734;28;20022;-75
2024/01/01 03:55:07;;;;;;;43.25;14.88;;;;;;;-144.73;100.00;54727.91;5027589;28;20020;-75
2024/01/01 03:57:33;;;;;;;32.30;15.18;;;;;;;-144.73;100.00;54727.91;5045967;28;20362;-76
2024/01/01 03:59:58;;;;;;;32.65;15.20;;;;;;;-144.73;100.00;54707.38;5029603;28;20020;-75
2024/01/01 04:02:24;;;;;;;39.45;16.50;;;;;;;-144.73;100.00;54711.47;5029191;28;20100;-75
2024/01/01 04:04:50;;;;;;;35.60;16.20;;;;;;;-144.73;100.00;54736.13;5029981;28;20408;-76
2024/01/01 04:07:18;;;;;;;46.70;15.57;;;;;;;-144.73;100.00;54711.47;5029726;28;20484;-75
2024/01/01 04:09:44;;;;;;;35.13;16.15;;;;;;;-144.73;100.00;54711.47;5025303;28;20030;-75
2024/01/01 04:12:12;;;;;;;34.70;15.32;;;;;;;-144.73;100.00;54732.00;5033888;28;20021;-74
2024/01/01 04:14:38;;;;;;;30.35;13.80;;;;;;;-144.73;100.00;54690.97;5010062;28;20061;-75
2024/01/01 04:17:03;;;;;;;33.50;15.27;;;;;;;-144.73;100.00;54695.06;5026711;28;20492;-75
2024/01/01 04:19:29;;;;;;;29.27;15.65;;;;;;;-144.73;100.00;54719.69;5009692;28;20088;-75
2024/01/01 04:21:57;;;;;;;34.50;16.08;;;;;;;-144.73;100.00;54723.81;5025869;28;20064;-75
2024/01/01 04:24:23;;;;;;;36.38;15.75;;;;;;;-144.73;100.00;54697.13;5009163;28;20238;-75
2024/01/01 04:26:48;;;;;;;34.85;15.82;;;;;;;-144.73;100.00;54705.31;5010548;28;20072;-75
2024/01/01 04:29:16;;;;;;;40.40;15.38;;;;;;;-144.73;100.00;54695.06;5009716;28;20070;-76
2024/01/01 04:31:42;;;;;;;36.80;17.00;;;;;;;-144.73;100.00;54699.16;5010416;28;20032;-76
2024/01/01 04:34:07;;;;;;;32.97;15.38;;;;;;;-144.73;100.00;54670.44;5028581;28;20104;-75
2024/01/01 04:36:32;;;;;;;41.28;16.58;;;;;;;-144.73;100.00;54705.31;5027224;28;20032;-75
2024/01/01 04:38:59;;;;;;;37.15;17.10;;;;;;;-144.73;100.00;54736.13;5028360;28;20048;-75
2024/01/01 04:41:25;;;;;;;32.08;15.35;;;;;;;-144.73;100.00;54719.69;5028661;28;20036;-74
2024/01/01 04:43:50;;;;;;;36.70;15.05;;;;;;;-144.73;100.00;54719.69;5028944;28;20041;-75
2024/01/01 04:46:15;;;;;;;39.97;16.20;;;;;;;-144.73;100.00;54719.69;5029184;28;20131;-75
2024/01/01 04:48:41;;;;;;;39.75;15.15;;;;;;;-144.73;100.00;54725.84;5029136;28;20064;-75
2024/01/01 04:51:06;;;;;;;33.63;14.10;;;;;;;-144.73;100.00;54682.75;5029733;28;20117;-75
2024/01/01 04:53:31;;;;;;;36.45;15.05;;;;;;;-144.73;100.00;54695.06;5025319;28;20038;-75
2024/01/01 04:55:57;;;;;;;29.45;13.52;;;;;;;-144.73;100.00;54695.06;5030556;28;20057;-75
2024/01/01 04:58:22;;;;;;;39.00;15.45;;;;;;;-144.73;100.00;54715.59;5029538;28;20041;-74
2024/01/01 05:00:47;;;;;;;32.72;14.95;;;;;;;-144.73;100.00;54727.91;5030082;28;20030;-75
2024/01/01 05:03:13;;;;;;;30.58;14.25;;;;;;;-144.73;100.00;54703.28;5014129;28;20041;-75
2024/01/01 05:05:38;;;;;;;29.50;13.55;;;;;;;-144.73;100.00;54719.69;5009719;28;20034;-75
2024/01/01 05:08:04;;;;;;;30.08;13.48;;;;;;;-144.73;100.00;54695.06;5009359;28;20045;-75
2024/01/01 05:10:29;;;;;;;33.58;13.50;;;;;;;-144.73;100.00;54707.38;5008576;28;20026;-75
2024/01/01 05:12:58;;;;;;;29.25;12.48;;;;;;;-144.73;100.00;54740.22;5011304;28;20038;-75
2024/01/01 05:15:23;;;;;;;27.67;12.68;;;;;;;-144.73;100.00;54705.31;5010852;28;20030;-75
2024/01/01 05:17:52;;;;;;;34.60;13.35;;;;;;;-144.73;100.00;54721.75;5011151;28;20046;-75
2024/01/01 05:20:17;;;;;;;31.23;12.70;;;;;;;-144.73;100.00;54658.13;5009587;28;20121;-75
2024/01/01 05:22:43;;;;;;;32.10;13.40;;;;;;;-144.73;100.00;54732.00;5025775;28;20117;-75
2024/01/01 05:25:08;;;;;;;29.33;12.77;;;;;;;-144.73;100.00;54752.53;5010389;28;20116;-75
2024/01/01 05:27:33;;;;;;;30.33;13.07;;;;;;;-144.73;100.00;54707.38;5009947;28;20030;-75
2024/01/01 05:29:59;;;;;;;35.83;12.52;;;;;;;-144.73;100.00;54711.47;5009556;28;20085;-75
2024/01/01 05:32:28;;;;;;;28.48;13.07;;;;;;;-144.73;100.00;54723.81;5018297;28;20075;-75
2024/01/01 05:34:53;;;;;;;25.10;11.43;;;;;;;-144.73;100.00;54740.22;5029811;28;20045;-75
2024/01/01 05:37:18;;;;;;;37.75;12.25;;;;;;;-144.73;100.00;54695.06;5031436;28;20032;-75
2024/01/01 05:39:44;;;;;;;26.95;11.32;;;;;;;-144.73;100.00;54686.84;5031977;28;20052;-74
2024/01/01 05:42:09;;;;;;;25.83;10.82;;;;;;;-144.73;100.00;54703.28;5031381;28;20054;-74
2024/01/01 05:44:34;;;;;;;23.30;9.45;;;;;;;-144.73;100.00;54693.00;5031963;28;20080;-75
2024/01/01 05:47:00;;;;;;;30.95;11.38;;;;;;;-144.73;100.00;54695.06;5032409;28;20164;-75
2024/01/01 05:49:28;;;;;;;22.55;8.18;;;;;;;-144.73;100.00;54709.44;5031895;28;20025;-74
2024/01/01 05:51:53;;;;;;;23.85;9.63;;;;;;;-144.73;100.00;54670.44;5031353;28;20033;-74
2024/01/01 05:54:19;;;;;;;17.95;8.75;;;;;;;-144.73;100.00;54672.47;5028393;28;20029;-75
2024/01/01 05:56:44;;;;;;;19.65;10.27;;;;;;;-144.73;100.00;54719.69;5033031;28;20117;-75
2024/01/01 05:59:10;;;;;;;23.30;8.27;;;;;;;-144.73;100.00;54732.00;5031297;28;20048;-74
2024/01/01 06:01:35;;;;;;;22.85;8.48;;;;;;;-144.73;100.00;54703.28;5031972;28;20021;-75
2024/01/01 06:04:00;;;;;;;18.63;7.40;;;;;;;-144.73;100.00;54715.59;5031499;28;20075;-75
2024/01/01 06:06:26;;;;;;;20.73;7.93;;;;;;;-144.73;100.00;54719.69;5032439;28;20480;-75
2024/01/01 06:08:51;;;;;;;19.88;8.52;;;;;;;-144.73;100.00;54699.16;5032348;28;20547;-76
2024/01/01 06:11:20;;;;;;;23.67;8.23;;;;;;;-144.73;100.00;54695.06;5025131;28;20099;-75
2024/01/01 06:13:45;;;;;;;18.70;7.90;;;;;;;-144.73;100.00;54715.59;5013516;28;20034;-75
2024/01/01 06:16:13;;;;;;;18.88;7.07;;;;;;;-144.73;100.00;54707.38;5028826;28;20026;-74
2024/01/01 06:18:38;;;;;;;21.55;8.15;;;;;;;-144.73;100.00;54676.59;5011851;28;20042;-75
2024/01/01 06:21:03;;;;;;;20.50;7.05;;;;;;;-144.73;100.00;54703.28;5012822;28;20104;-74
2024/01/01 06:23:29;;;;;;;29.48;7.90;;;;;;;-144.73;100.00;54690.97;5029653;28;20034;-75
2024/01/01 06:25:55;;;;;;;31.95;7.90;;;;;;;-144.73;100.00;54744.31;5029488;28;20029;-75
2024/01/01 06:28:21;;;;;;;25.08;7.25;;;;;;;-144.73;100.00;54678.63;5030658;28;20124;-76
2024/01/01 06:30:46;;;;;;;24.58;8.32;;;;;;;-144.73;100.00;54711.47;5032837;28;20091;-75
2024/01/01 06:33:11;;;;;;;19.35;6.75;;;;;;;-144.73;100.00;54690.97;5030524;28;20041;-75
2024/01/01 06:35:39;;;;;;;17.88;7.72;;;;;;;-144.73;100.00;54688.91;5031352;28;20036;-75
2024/01/01 06:38:04;;;;;;;20.40;7.88;;;;;;;-144.73;100.00;54703.28;5029713;28;20107;-74
2024/01/01 06:40:33;;;;;;;20.38;7.15;;;;;;;-144.73;100.00;54701.22;5031665;28;20025;-74
2024/01/01 06:42:58;;;;;;;18.48;7.18;;;;;;;-144.73;100.00;54690.97;5030060;28;20519;-75
2024/01/01 06:45:24;;;;;;;17.60;7.15;;;;;;;-144.73;100.00;54678.63;5030958;28;20057;-75
2024/01/01 06:47:49;;;;;;;16.98;6.30;;;;;;;-144.73;100.00;54686.84;5030858;28;20052;-74
2024/01/01 06:50:15;;;;;;;19.67;6.68;;;;;;;-144.73;100.00;54654.00;5031641;28;20109;-75
2024/01/01 06:52:40;;;;;;;14.50;5.60;;;;;;;-144.73;100.00;54695.06;5029292;28;20060;-75
2024/01/01 06:55:08;;;;;;;17.58;7.45;;;;;;;-144.73;100.00;54709.44;5028327;28;20021;-75
2024/01/01 06:57:34;;;;;;;20.67;6.28;;;;;;;-144.73;100.00;54695.06;5030459;28;20067;-75
2024/01/01 06:59:59;;;;;;;18.08;5.70;;;;;;;-144.73;100.00;54670.44;5031257;28;20017;-76
2024/01/01 07:02:25;;;;;;;23.35;6.10;;;;;;;-144.73;100.00;54697.13;5030770;28;20048;-75
2024/01/01 07:04:51;;;;;;;18.65;6.78;;;;;;;-144.73;100.00;54719.69;5021009;28;20038;-75
2024/01/01 07:07:17;;;;;;;17.67;6.40;;;;;;;-144.73;100.00;54699.16;5030938;28;20025;-75
2024/01/01 07:09:42;;;;;;;18.38;6.38;;;;;;;-144.73;100.00;54699.16;5043446;28;20026;-75
2024/01/01 07:12:19;;;;;;;17.60;7.63;;;;;;;-144.73;100.00;54715.59;5019625;28;20026;-75
2024/01/01 07:14:46;;;;;;;25.35;7.75;;;;;;;-144.73;100.00;54670.44;5007585;28;20041;-75
2024/01/01 07:17:11;;;;;;;25.90;6.70;;;;;;;-144.73;100.00;54703.28;5012579;28;20107;-75
2024/01/01 07:19:36;;;;;;;20.02;6.38;;;;;;;-144.73;100.00;54678.63;5027301;28;20077;-75
2024/01/01 07:22:02;;;;;;;23.38;6.68;;;;;;;-144.73;100.00;54701.22;5018278;28;20045;-75
2024/01/01 07:24:29;;;;;;;16.98;6.65;;;;;;;-144.73;100.00;54676.59;5029616;28;20026;-74
2024/01/01 07:26:54;;;;;;;17.63;5.88;;;;;;;-144.73;100.00;54695.06;5044908;28;20036;-75
2024/01/01 07:29:20;;;;;;;20.17;6.10;;;;;;;-144.73;100.00;54715.59;5029661;28;20119;-75
2024/01/01 07:31:45;;;;;;;16.70;6.25;;;;;;;-144.73;100.00;54713.53;5031694;28;20057;-76
2024/01/01 07:34:12;;;;;;;31.30;7.00;;;;;;;-144.73;100.00;54707.38;5029599;28;20060;-75
2024/01/01 07:36:38;;;;;;;17.55;7.00;;;;;;;-144.73;100.00;54658.13;5045382;28;20067;-75
2024/01/01 07:39:03;;;;;;;20.05;5.85;;;;;;;-144.73;100.00;54711.47;5029727;28;20101;-75
2024/01/01 07:41:29;;;;;;;19.00;5.50;;;;;;;-144.73;100.00;54690.97;5028974;28;20112;-75
2024/01/01 07:43:55;;;;;;;20.50;5.72;;;;;;;-144.73;100.00;54686.84;5012011;28;20073;-74
2024/01/01 07:46:21;;;;;;;15.70;5.53;;;;;;;-144.73;100.00;54727.91;5011984;28;20053;-75
2024/01/01 07:48:46;;;;;;;17.42;5.50;;;;;;;-144.73;100.00;54690.97;5011663;28;20057;-75
2024/01/01 07:51:12;;;;;;;23.45;6.25;;;;;;;-144.73;100.00;54656.06;5012027;28;20028;-74
2024/01/01 07:53:37;;;;;;;18.77;6.88;;;;;;;-144.73;100.00;54699.16;5028383;28;20038;-75
2024/01/01 07:56:04;;;;;;;15.73;6.30;;;;;;;-144.73;100.00;54695.06;5029873;28;20119;-75
2024/01/01 07:58:30;;;;;;;16.42;6.38;;;;;;;-144.73;100.00;54707.38;5029506;28;20520;-74
2024/01/01 08:00:56;;;;;;;18.50;6.55;;;;;;;-144.73;100.00;54715.59;5029672;28;20136;-75
2024/01/01 08:03:22;;;;;;;15.35;6.28;;;;;;;-144.73;100.00;54674.53;5017015;28;20037;-75
2024/01/01 08:05:47;;;;;;;18.90;5.95;;;;;;;-144.73;100.00;54662.22;5027198;28;20121;-76
2024/01/01 08:08:16;;;;;;;21.45;6.60;;;;;;;-144.73;100.00;54732.00;5014573;28;20022;-75
2024/01/01 08:10:43;;;;;;;19.38;6.47;;;;;;;-144.73;100.00;54641.69;5013192;28;20026;-74
2024/01/01 08:13:08;;;;;;;19.95;6.63;;;;;;;-144.73;100.00;54723.81;5025041;28;20041;-75
2024/01/01 08:15:34;;;;;;;15.85;6.15;;;;;;;-144.73;100.00;54721.75;5029922;28;20028;-74
2024/01/01 08:18:03;;;;;;;21.27;6.30;;;;;;;-144.73;100.00;54727.91;5027347;28;20026;-74
2024/01/01 08:20:29;;;;;;;21.88;5.80;;;;;;;-144.73;100.00;54703.28;5030833;28;20163;-74
2024/01/01 08:22:55;;;;;;;18.52;6.07;;;;;;;-144.73;100.00;54690.97;5028662;28;20086;-74
2024/01/01 08:25:20;;;;;;;18.30;5.43;;;;;;;-144.73;100.00;54723.81;5021813;28;20010;-74
2024/01/01 08:27:47;;;;;;;25.50;6.72;;;;;;;-144.73;100.00;54699.16;5029213;28;20037;-75
2024/01/01 08:30:13;;;;;;;20.17;5.72;;;;;;;-144.73;100.00;54686.84;5029599;28;20029;-75
2024/01/01 08:32:38;;;;;;;17.42;6.38;;;;;;;-144.73;100.00;54649.91;5029232;28;20033;-75
2024/01/01 08:35:04;;;;;;;16.67;5.78;;;;;;;-144.73;100.00;54719.69;5029577;28;20025;-75
2024/01/01 08:37:29;;;;;;;18.02;5.78;;;;;;;-144.73;100.00;54678.63;5027462;28;20079;-74
2024/01/01 08:39:55;;;;;;;20.27;5.78;;;;;;;-144.73;100.00;54715.59;5029748;28;20088;-75
2024/01/01 08:42:21;;;;;;;17.05;6.15;;;;;;;-144.73;100.00;54686.84;5029067;28;20091;-75
2024/01/01 08:44:46;;;;;;;22.92;6.22;;;;;;;-144.73;100.00;54662.22;5029202;28;20041;-74
2024/01/01 08:47:11;;;;;;;17.13;5.72;;;;;;;-144.73;100.00;54690.97;5029224;28;20033;-74
2024/01/01 08:49:37;;;;;;;20.05;5.40;;;;;;;-144.73;100.00;54678.63;5028885;28;20119;-74
2024/01/01 08:52:02;;;;;;;21.30;5.68;;;;;;;-144.73;100.00;54682.75;5027515;28;20033;-75
2024/01/01 08:54:28;;;;;;;23.38;5.35;;;;;;;-144.73;100.00;54686.84;5029504;28;20070;-75
2024/01/01 08:56:53;;;;;;;20.35;5.88;;;;;;;-144.73;100.00;54693.00;5029251;28;20026;-74
2024/01/01 08:59:18;;;;;;;28.10;6.03;;;;;;;-144.73;100.00;54719.69;5028506;28;20042;-74
2024/01/01 09:01:45;;;;;;;21.30;5.82;;;;;;;-144.73;100.00;54682.75;5028861;28;20029;-75
2024/01/01 09:04:11;;;;;;;19.83;6.18;;;;;;;-144.73;100.00;54701.22;5029374;28;20044;-75
2024/01/01 09:06:37;;;;;;;23.85;6.60;;;;;;;-144.73;100.00;54703.28;5018315;28;20034;-69
2024/01/01 09:09:02;;;;;;;18.83;6.28;;;;;;;-144.73;100.00;54707.38;5038312;28;20038;-70
2024/01/01 09:11:27;;;;;;;24.17;7.40;;;;;;;-144.73;100.00;54703.28;5029179;28;20040;-70
2024/01/01 09:13:53;;;;;;;23.95;7.03;;;;;;;-144.73;100.00;54703.28;5025666;28;20034;-72
2024/01/01 09:16:18;;;;;;;26.50;7.43;;;;;;;-144.73;100.00;54690.97;5028333;28;20021;-72
2024/01/01 09:18:44;;;;;;;33.40;8.65;;;;;;;-144.73;100.00;54697.13;5030578;28;20056;-74
2024/01/01 09:21:14;;;;;;;33.50;8.95;;;;;;;-144.73;100.00;54686.84;5034457;28;20087;-73
2024/01/01 09:23:39;;;;;;;38.95;8.10;;;;;;;-144.73;100.00;54711.47;5031923;28;20053;-72
2024/01/01 09:26:04;;;;;;;44.30;8.07;;;;;;;-144.73;100.00;54701.22;5032385;28;20029;-71
2024/01/01 09:28:31;;;;;;;34.55;8.40;;;;;;;-144.73;100.00;54723.81;5033396;28;20029;-72
2024/01/01 09:30:57;;;;;;;31.83;9.00;;;;;;;-144.73;100.00;54719.69;5035123;28;20026;-72
2024/01/01 09:33:22;;;;;;;37.38;9.57;;;;;;;-144.73;100.00;54699.16;5020027;28;20034;-73
2024/01/01 09:35:48;;;;;;;32.65;8.77;;;;;;;-144.73;100.00;54721.75;5022421;28;20037;-71
2024/01/01 09:38:13;;;;;;;37.25;7.53;;;;;;;-144.73;100.00;54711.47;5026854;28;20102;-72
2024/01/01 09:40:38;;;;;;;29.60;7.35;;;;;;;-144.73;100.00;54719.69;5015892;28;20029;-72
2024/01/01 09:43:04;;;;;;;25.30;8.15;;;;;;;-144.73;100.00;54701.22;5014517;28;20037;-71
2024/01/01 09:45:30;;;;;;;30.70;7.80;;;;;;;-144.73;100.00;54674.53;5020496;28;20033;-72
2024/01/01 09:47:56;;;;;;;29.30;8.13;;;;;;;-144.73;100.00;54719.69;5013259;28;20038;-74
2024/01/01 09:50:21;;;;;;;25.15;6.57;;;;;;;-144.73;100.00;54715.59;5013594;28;20014;-73
2024/01/01 09:52:46;;;;;;;31.10;7.20;;;;;;;-144.73;100.00;54711.47;5029525;28;20032;-73
2024/01/01 09:55:12;;;;;;;33.40;7.72;;;;;;;-144.73;100.00;54703.28;5022354;28;20025;-73
2024/01/01 09:57:39;;;;;;;25.83;6.63;;;;;;;-144.73;100.00;54686.84;5020171;28;20041;-73
2024/01/01 10:00:18;;;;;;;27.30;6.78;;;;;;;-144.73;100.00;54703.28;5013654;28;20057;-73
2024/01/01 10:02:43;;;;;;;34.13;7.18;;;;;;;-144.73;100.00;54678.63;5027794;28;20116;-73
2024/01/01 10:05:13;;;;;;;27.50;6.70;;;;;;;-144.73;100.00;54699.16;5034626;28;20125;-74
2024/01/01 10:07:38;;;;;;;23.60;6.10;;;;;;;-144.73;100.00;54727.91;5033373;28;20065;-72
2024/01/01 10:10:04;;;;;;;40.03;7.88;;;;;;;-144.73;100.00;54711.47;5026902;28;20481;-74
2024/01/01 10:12:32;;;;;;;25.63;7.13;;;;;;;-144.73;100.00;54715.59;5024461;28;20529;-72
2024/01/01 10:14:58;;;;;;;25.85;6.53;;;;;;;-144.73;100.00;54699.16;5043433;28;20033;-72
2024/01/01 10:17:24;;;;;;;32.90;6.82;;;;;;;-144.73;100.00;54703.28;5026626;28;20056;-73
2024/01/01 10:19:56;;;;;;;29.27;7.15;;;;;;;-144.73;100.00;54699.16;5032495;28;20069;-73
2024/01/01 10:22:23;;;;;;;30.70;6.53;;;;;;;-144.73;100.00;54715.59;5033250;28;20025;-72
2024/01/01 10:24:52;;;;;;;32.72;7.30;;;;;;;-144.73;100.00;54719.69;5028000;28;20120;-73
2024/01/01 10:27:20;;;;;;;31.48;6.72;;;;;;;-144.73;100.00;54715.59;5033844;28;20127;-71
2024/01/01 10:29:49;;;;;;;37.47;5.95;;;;;;;-144.73;100.00;54699.16;5034441;28;20062;-73
2024/01/01 10:32:19;;;;;;;31.23;6.45;;;;;;;-144.73;100.00;54723.81;5032524;28;20057;-72
2024/01/01 10:34:46;;;;;;;28.38;5.78;;;;;;;-144.73;100.00;54744.31;5026218;28;20040;-73
2024/01/01 10:37:14;;;;;;;24.77;5.13;;;;;;;-144.73;100.00;54699.16;5033963;28;20032;-73
2024/01/01 10:39:40;;;;;;;17.63;4.72;;;;;;;-144.73;100.00;54674.53;5034065;28;20062;-72
2024/01/01 10:42:06;;;;;;;29.67;6.15;;;;;;;-144.73;100.00;54674.53;5031556;28;20025;-74
2024/01/01 10:44:31;;;;;;;33.33;6.25;;;;;;;-144.73;100.00;54715.59;5032423;28;20028;-73
2024/01/01 10:47:06;;;;;;;26.02;5.03;;;;;;;-144.73;100.00;54727.91;5032796;28;20031;-74
2024/01/01 10:49:31;;;;;;;15.85;4.18;;;;;;;-144.73;100.00;54740.22;5031850;28;20025;-72
2024/01/01 10:52:21;;;;;;;17.05;4.50;;;;;;;-144.73;100.00;54703.28;5033408;28;20025;-73